createdAt,value
2023-04-04T00:00:46.510Z,52.90
2023-04-04T00:03:17.490Z,53.04
2023-04-04T00:05:45.762Z,53.15
2023-04-04T00:08:13.651Z,53.14
2023-04-04T00:10:42.131Z,53.14
2023-04-04T00:13:10.416Z,53.20
2023-04-04T00:15:38.242Z,53.19
2023-04-04T00:18:06.232Z,53.26
2023-04-04T00:20:34.106Z,53.22
2023-04-04T00:23:01.919Z,53.39
2023-04-04T00:25:29.788Z,53.35
2023-04-04T00:28:00.950Z,53.33
2023-04-04T00:30:30.310Z,53.44
2023-04-04T00:32:58.700Z,53.44
2023-04-04T00:35:26.734Z,53.18
2023-04-04T00:37:54.662Z,53.20
2023-04-04T00:40:22.637Z,53.10
2023-04-04T00:42:51.166Z,52.99
2023-04-04T00:45:19.131Z,53.06
2023-04-04T00:47:48.285Z,53.09
2023-04-04T00:50:17.817Z,53.13
2023-04-04T00:52:45.793Z,53.25
2023-04-04T00:55:13.806Z,53.31
2023-04-04T00:57:41.825Z,53.30
2023-04-04T01:00:10.564Z,53.35
2023-04-04T01:02:38.675Z,53.37
2023-04-04T01:05:08.102Z,53.20
2023-04-04T01:07:37.290Z,53.24
2023-04-04T01:10:06.446Z,53.18
2023-04-04T01:12:35.523Z,53.19
2023-04-04T01:15:03.695Z,53.17
2023-04-04T01:17:31.725Z,53.23
2023-04-04T01:20:06.124Z,53.35
2023-04-04T01:22:42.285Z,53.35
2023-04-04T01:25:11.664Z,53.50
2023-04-04T01:27:42.179Z,53.54
2023-04-04T01:30:15.038Z,53.56
2023-04-04T01:32:56.643Z,53.65
2023-04-04T01:35:31.432Z,53.64
2023-04-04T01:38:19.098Z,53.59
2023-04-04T01:40:49.999Z,53.55
2023-04-04T01:43:18.899Z,53.57
2023-04-04T01:45:47.102Z,53.49
2023-04-04T01:48:16.796Z,53.54
2023-04-04T01:50:47.659Z,53.79
2023-04-04T01:53:15.953Z,53.80
2023-04-04T01:55:44.013Z,53.72
2023-04-04T01:58:12.519Z,53.82
2023-04-04T02:00:40.692Z,53.76
2023-04-04T02:03:09.367Z,53.84
2023-04-04T02:05:37.470Z,53.82
2023-04-04T02:08:05.633Z,53.87
2023-04-04T02:10:37.202Z,53.84
2023-04-04T02:13:06.688Z,53.95
2023-04-04T02:15:35.562Z,53.93
2023-04-04T02:18:03.646Z,53.79
2023-04-04T02:20:31.897Z,53.75
2023-04-04T02:22:59.734Z,53.97
2023-04-04T02:25:27.898Z,54.02
2023-04-04T02:27:55.879Z,54.01
2023-04-04T02:30:23.908Z,53.94
2023-04-04T02:32:52.422Z,54.05
2023-04-04T02:35:21.449Z,54.06
2023-04-04T02:37:49.342Z,54.03
2023-04-04T02:40:39.457Z,54.09
2023-04-04T02:43:07.617Z,54.16
2023-04-04T02:45:37.047Z,54.16
2023-04-04T02:48:25.882Z,54.26
2023-04-04T02:50:54.844Z,54.39
2023-04-04T02:53:22.834Z,54.37
2023-04-04T02:55:52.413Z,54.48
2023-04-04T02:58:20.330Z,54.54
2023-04-04T03:00:54.775Z,54.65
2023-04-04T03:03:24.300Z,54.68
2023-04-04T03:05:52.986Z,54.61
2023-04-04T03:08:20.884Z,54.72
2023-04-04T03:10:49.053Z,54.77
2023-04-04T03:13:17.193Z,54.76
2023-04-04T03:15:47.409Z,54.91
2023-04-04T03:18:16.535Z,54.85
2023-04-04T03:20:44.481Z,54.92
2023-04-04T03:23:12.347Z,54.99
2023-04-04T03:25:40.614Z,55.00
2023-04-04T03:28:12.635Z,54.92
2023-04-04T03:30:41.721Z,55.05
2023-04-04T03:33:09.981Z,55.18
2023-04-04T03:35:39.776Z,55.21
2023-04-04T03:38:08.936Z,55.25
2023-04-04T03:40:37.077Z,55.19
2023-04-04T03:43:10.135Z,55.28
2023-04-04T03:45:38.487Z,55.36
2023-04-04T03:48:07.289Z,55.42
2023-04-04T03:50:37.012Z,55.48
2023-04-04T03:53:04.872Z,55.51
2023-04-04T03:55:34.027Z,55.63
2023-04-04T03:58:01.898Z,55.71
2023-04-04T04:00:30.610Z,55.76
2023-04-04T04:02:58.515Z,55.74
2023-04-04T04:05:26.431Z,55.75
2023-04-04T04:07:54.488Z,55.86
2023-04-04T04:10:22.398Z,55.89
2023-04-04T04:12:50.257Z,55.90
2023-04-04T04:15:18.371Z,56.02
2023-04-04T04:17:47.164Z,55.98
2023-04-04T04:20:14.983Z,56.07
2023-04-04T04:22:50.529Z,56.19
2023-04-04T04:25:19.316Z,56.29
2023-04-04T04:27:59.373Z,56.24
2023-04-04T04:30:27.601Z,56.45
2023-04-04T04:32:56.265Z,56.50
2023-04-04T04:35:27.753Z,56.63
2023-04-04T04:37:55.852Z,56.54
2023-04-04T04:40:23.801Z,56.71
2023-04-04T04:42:57.671Z,56.79
2023-04-04T04:45:25.832Z,56.79
2023-04-04T04:48:04.512Z,56.94
2023-04-04T04:50:33.439Z,57.05
2023-04-04T04:53:01.564Z,57.28
2023-04-04T04:55:29.432Z,57.19
2023-04-04T04:58:05.625Z,57.19
2023-04-04T05:00:33.589Z,57.28
2023-04-04T05:03:01.580Z,57.32
2023-04-04T05:05:37.837Z,57.45
2023-04-04T05:08:09.093Z,57.37
2023-04-04T05:10:39.785Z,57.37
2023-04-04T05:13:10.026Z,57.24
2023-04-04T05:15:42.737Z,57.23
2023-04-04T05:18:11.087Z,57.31
2023-04-04T05:20:39.468Z,57.17
2023-04-04T05:23:07.848Z,57.21
2023-04-04T05:25:39.238Z,57.21
2023-04-04T05:28:08.075Z,57.25
2023-04-04T05:30:37.330Z,57.31
2023-04-04T05:33:17.804Z,57.31
2023-04-04T05:35:51.924Z,57.30
2023-04-04T05:38:20.480Z,57.26
2023-04-04T05:40:49.417Z,57.28
2023-04-04T05:43:17.878Z,57.26
2023-04-04T05:45:56.833Z,57.26
2023-04-04T05:48:25.275Z,57.11
2023-04-04T05:50:53.922Z,57.14
2023-04-04T05:53:29.358Z,56.95
2023-04-04T05:55:58.856Z,56.93
2023-04-04T05:58:30.358Z,57.11
2023-04-04T06:00:59.120Z,57.09
2023-04-04T06:03:28.886Z,57.12
2023-04-04T06:05:58.168Z,56.92
2023-04-04T06:08:26.290Z,56.99
2023-04-04T06:10:56.047Z,57.00
2023-04-04T06:13:24.787Z,56.81
2023-04-04T06:15:57.227Z,56.65
2023-04-04T06:18:25.068Z,56.75
2023-04-04T06:20:52.953Z,56.58
2023-04-04T06:23:21.011Z,56.50
2023-04-04T06:25:51.101Z,56.81
2023-04-04T06:28:22.138Z,56.94
2023-04-04T06:30:50.728Z,56.79
2023-04-04T06:33:27.605Z,56.57
2023-04-04T06:35:56.056Z,56.62
2023-04-04T06:38:24.806Z,56.04
2023-04-04T06:40:53.611Z,56.19
2023-04-04T06:43:21.725Z,56.10
2023-04-04T06:45:49.780Z,56.14
2023-04-04T06:48:20.945Z,56.14
2023-04-04T06:50:49.237Z,56.13
2023-04-04T06:53:18.619Z,56.23
2023-04-04T06:55:46.514Z,56.16
2023-04-04T06:58:14.359Z,55.55
2023-04-04T07:00:42.436Z,55.25
2023-04-04T07:03:10.518Z,55.71
2023-04-04T07:05:41.754Z,55.96
2023-04-04T07:08:09.777Z,55.87
2023-04-04T07:10:39.647Z,55.82
2023-04-04T07:13:07.946Z,56.60
2023-04-04T07:15:35.805Z,55.98
2023-04-04T07:18:03.661Z,55.88
2023-04-04T07:20:32.314Z,55.94
2023-04-04T07:23:00.127Z,55.75
2023-04-04T07:25:27.936Z,55.11
2023-04-04T07:28:05.981Z,54.88
2023-04-04T07:30:40.457Z,54.82
2023-04-04T07:33:08.465Z,54.20
2023-04-04T07:35:36.551Z,54.04
2023-04-04T07:38:05.236Z,54.07
2023-04-04T07:40:33.190Z,54.09
2023-04-04T07:43:01.249Z,53.99
2023-04-04T07:45:29.035Z,53.41
2023-04-04T07:47:57.001Z,52.71
2023-04-04T07:50:24.888Z,52.65
2023-04-04T07:52:54.468Z,52.73
2023-04-04T07:55:25.221Z,52.69
2023-04-04T07:57:53.466Z,52.34
2023-04-04T08:00:22.642Z,52.79
2023-04-04T08:02:55.241Z,52.82
2023-04-04T08:05:23.912Z,52.12
2023-04-04T08:07:52.059Z,51.86
2023-04-04T08:10:21.699Z,51.83
2023-04-04T08:12:49.650Z,51.79
2023-04-04T08:15:17.670Z,52.20
2023-04-04T08:17:45.574Z,52.17
2023-04-04T08:20:13.797Z,52.01
2023-04-04T08:22:42.737Z,51.63
2023-04-04T08:25:12.066Z,52.07
2023-04-04T08:27:41.188Z,51.72
2023-04-04T08:30:09.458Z,51.48
2023-04-04T08:32:37.383Z,51.57
2023-04-04T08:35:06.096Z,51.46
2023-04-04T08:37:35.812Z,51.53
2023-04-04T08:40:04.477Z,51.70
2023-04-04T08:42:37.047Z,51.45
2023-04-04T08:45:05.647Z,51.47
2023-04-04T08:47:36.287Z,51.82
2023-04-04T08:50:06.118Z,51.62
2023-04-04T08:52:35.235Z,51.62
2023-04-04T08:55:05.553Z,51.23
2023-04-04T08:57:33.523Z,51.57
2023-04-04T09:00:06.060Z,51.01
2023-04-04T09:02:49.576Z,50.78
2023-04-04T09:05:18.322Z,50.91
2023-04-04T09:07:46.427Z,50.85
2023-04-04T09:10:14.261Z,50.96
2023-04-04T09:12:47.449Z,50.87
2023-04-04T09:15:15.975Z,51.02
2023-04-04T09:17:44.129Z,50.94
2023-04-04T09:20:33.808Z,50.00
2023-04-04T09:23:02.036Z,50.07
2023-04-04T09:25:30.056Z,49.88
2023-04-04T09:27:58.161Z,50.29
2023-04-04T09:30:25.980Z,50.42
2023-04-04T09:32:54.009Z,50.26
2023-04-04T09:35:21.994Z,50.14
2023-04-04T09:37:49.932Z,49.82
2023-04-04T09:40:18.125Z,50.71
2023-04-04T09:42:46.042Z,50.64
2023-04-04T09:45:22.303Z,50.42
2023-04-04T09:47:57.919Z,49.94
2023-04-04T09:50:28.733Z,50.42
2023-04-04T09:52:59.378Z,50.31
2023-04-04T09:55:34.752Z,50.24
2023-04-04T09:58:17.591Z,50.07
2023-04-04T10:00:49.313Z,50.22
2023-04-04T10:03:18.768Z,49.81
2023-04-04T10:05:47.446Z,50.05
2023-04-04T10:08:21.314Z,50.19
2023-04-04T10:11:09.696Z,50.27
2023-04-04T10:13:41.741Z,50.00
2023-04-04T10:16:10.878Z,49.61
2023-04-04T10:18:39.696Z,49.95
2023-04-04T10:23:41.511Z,49.85
2023-04-04T10:26:09.986Z,49.68
2023-04-04T10:28:37.868Z,49.67
2023-04-04T10:31:14.834Z,49.85
2023-04-04T10:34:01.852Z,49.57
2023-04-04T10:36:36.520Z,49.31
2023-04-04T10:39:04.830Z,49.27
2023-04-04T10:41:33.230Z,49.44
2023-04-04T10:44:12.202Z,49.68
2023-04-04T10:46:43.207Z,49.37
2023-04-04T10:49:11.925Z,49.34
2023-04-04T10:51:52.847Z,49.57
2023-04-04T10:54:21.419Z,49.75
2023-04-04T10:56:49.425Z,50.06
2023-04-04T10:59:18.222Z,49.91
2023-04-04T11:01:51.236Z,49.98
2023-04-04T11:04:21.870Z,49.60
2023-04-04T11:07:19.507Z,49.94
2023-04-04T11:09:47.343Z,49.59
2023-04-04T11:12:20.387Z,49.56
2023-04-04T11:15:07.616Z,49.70
2023-04-04T11:17:52.815Z,50.09
2023-04-04T11:20:31.790Z,49.97
2023-04-04T11:23:05.820Z,49.84
2023-04-04T11:25:35.017Z,49.64
2023-04-04T11:28:08.173Z,49.83
2023-04-04T11:30:44.088Z,50.08
2023-04-04T11:33:12.832Z,50.03
2023-04-04T11:35:47.151Z,50.57
2023-04-04T11:38:16.252Z,50.83
2023-04-04T11:40:53.817Z,50.98
2023-04-04T11:43:22.448Z,50.77
2023-04-04T11:45:50.776Z,50.38
2023-04-04T11:48:20.281Z,50.13
2023-04-04T11:50:50.101Z,50.26
2023-04-04T11:53:17.979Z,50.53
2023-04-04T11:55:50.294Z,50.33
2023-04-04T11:58:18.399Z,50.06
2023-04-04T12:00:46.955Z,49.85
2023-04-04T12:03:17.156Z,49.65
2023-04-04T12:05:46.608Z,49.98
2023-04-04T12:08:15.800Z,50.01
2023-04-04T12:10:44.430Z,50.02
2023-04-04T12:13:13.171Z,50.01
2023-04-04T12:15:43.534Z,50.09
2023-04-04T12:18:21.806Z,50.19
2023-04-04T12:20:53.527Z,50.19
2023-04-04T12:23:22.191Z,50.24
2023-04-04T12:25:54.690Z,50.32
2023-04-04T12:28:23.372Z,50.29
2023-04-04T12:30:51.629Z,50.45
2023-04-04T12:33:19.704Z,50.23
2023-04-04T12:35:54.917Z,49.85
2023-04-04T12:38:22.899Z,49.84
2023-04-04T12:40:51.310Z,49.78
2023-04-04T12:43:20.735Z,49.53
2023-04-04T12:45:51.864Z,49.18
2023-04-04T12:48:21.393Z,48.74
2023-04-04T12:50:52.053Z,48.67
2023-04-04T12:56:05.181Z,49.30
2023-04-04T12:58:35.894Z,49.10
2023-04-04T13:01:05.615Z,48.96
2023-04-04T13:03:33.979Z,49.03
2023-04-04T13:06:02.590Z,48.91
2023-04-04T13:08:30.866Z,49.01
2023-04-04T13:11:04.859Z,49.10
2023-04-04T13:13:40.222Z,49.06
2023-04-04T13:16:09.806Z,49.06
2023-04-04T13:18:39.421Z,48.74
2023-04-04T13:21:07.955Z,48.49
2023-04-04T13:23:41.044Z,48.02
2023-04-04T13:26:10.271Z,48.18
2023-04-04T13:28:38.642Z,48.45
2023-04-04T13:31:08.761Z,48.58
2023-04-04T13:33:37.775Z,48.27
2023-04-04T13:36:06.208Z,48.31
2023-04-04T13:38:34.546Z,48.36
2023-04-04T13:41:02.554Z,48.73
2023-04-04T13:43:30.396Z,48.71
2023-04-04T13:45:58.294Z,48.39
2023-04-04T13:48:26.506Z,48.21
2023-04-04T13:50:55.337Z,47.94
2023-04-04T13:53:23.542Z,47.64
2023-04-04T13:56:17.142Z,47.81
2023-04-04T13:58:39.749Z,47.88
2023-04-04T14:01:08.253Z,47.58
2023-04-04T14:03:36.992Z,47.56
2023-04-04T14:06:10.405Z,48.09
2023-04-04T14:08:39.514Z,47.72
2023-04-04T14:11:07.641Z,47.88
2023-04-04T14:13:36.782Z,48.14
2023-04-04T14:16:05.235Z,48.27
2023-04-04T14:18:34.386Z,48.21
2023-04-04T14:21:03.205Z,48.04
2023-04-04T14:23:31.835Z,47.95
2023-04-04T14:25:59.864Z,47.96
2023-04-04T14:28:28.332Z,48.07
2023-04-04T14:30:56.389Z,47.78
2023-04-04T14:33:24.366Z,47.71
2023-04-04T14:35:52.315Z,47.55
2023-04-04T14:38:20.262Z,47.46
2023-04-04T14:40:49.011Z,47.61
2023-04-04T14:43:16.899Z,47.62
2023-04-04T14:45:44.737Z,47.82
2023-04-04T14:48:12.585Z,47.61
2023-04-04T14:50:42.701Z,47.96
2023-04-04T14:53:11.035Z,47.85
2023-04-04T14:55:39.271Z,47.68
2023-04-04T14:58:07.359Z,47.50
2023-04-04T15:00:36.154Z,47.44
2023-04-04T15:03:07.123Z,47.58
2023-04-04T15:05:35.414Z,47.69
2023-04-04T15:08:03.873Z,47.68
2023-04-04T15:10:31.666Z,47.82
2023-04-04T15:12:59.509Z,47.50
2023-04-04T15:15:29.044Z,47.41
2023-04-04T15:17:57.061Z,47.38
2023-04-04T15:20:25.018Z,47.19
2023-04-04T15:22:52.833Z,47.43
2023-04-04T15:25:20.910Z,47.60
2023-04-04T15:27:48.875Z,47.53
2023-04-04T15:30:16.872Z,47.46
2023-04-04T15:32:44.888Z,47.34
2023-04-04T15:35:20.902Z,47.16
2023-04-04T15:37:49.243Z,46.96
2023-04-04T15:40:17.768Z,47.07
2023-04-04T15:42:46.732Z,47.19
2023-04-04T15:45:15.321Z,47.26
2023-04-04T15:47:44.946Z,47.29
2023-04-04T15:50:13.285Z,47.31
2023-04-04T15:52:41.803Z,47.38
2023-04-04T15:55:14.515Z,47.62
2023-04-04T15:57:44.545Z,47.49
2023-04-04T16:00:14.587Z,47.39
2023-04-04T16:02:42.779Z,47.34
2023-04-04T16:05:11.048Z,47.32
2023-04-04T16:07:39.028Z,47.33
2023-04-04T16:10:07.410Z,47.20
2023-04-04T16:12:35.249Z,47.13
2023-04-04T16:15:05.319Z,47.14
2023-04-04T16:17:33.373Z,47.13
2023-04-04T16:20:01.731Z,47.05
2023-04-04T16:22:29.714Z,46.84
2023-04-04T16:24:57.552Z,47.10
2023-04-04T16:27:25.445Z,46.67
2023-04-04T16:29:53.302Z,46.81
2023-04-04T16:32:21.228Z,47.03
2023-04-04T16:34:49.104Z,47.06
2023-04-04T16:37:17.296Z,47.00
2023-04-04T16:39:46.688Z,46.87
2023-04-04T16:42:14.787Z,46.65
2023-04-04T16:44:43.395Z,46.78
2023-04-04T16:47:12.248Z,46.82
2023-04-04T16:49:41.270Z,46.86
2023-04-04T16:52:10.715Z,46.95
2023-04-04T16:54:38.635Z,47.10
2023-04-04T16:57:07.420Z,46.95
2023-04-04T16:59:38.733Z,47.07
2023-04-04T17:02:10.848Z,47.30
2023-04-04T17:04:41.649Z,47.02
2023-04-04T17:07:10.434Z,47.06
2023-04-04T17:09:38.581Z,47.13
2023-04-04T17:12:06.714Z,47.23
2023-04-04T17:14:35.621Z,47.36
2023-04-04T17:17:05.384Z,47.28
2023-04-04T17:19:35.080Z,47.34
2023-04-04T17:22:03.796Z,47.39
2023-04-04T17:24:31.837Z,47.39
2023-04-04T17:27:02.384Z,47.29
2023-04-04T17:29:30.794Z,47.50
2023-04-04T17:31:59.698Z,47.36
2023-04-04T17:34:28.278Z,47.45
2023-04-04T17:36:58.015Z,47.35
2023-04-04T17:39:26.257Z,47.47
2023-04-04T17:41:54.674Z,47.43
2023-04-04T17:44:22.887Z,47.55
2023-04-04T17:46:50.768Z,47.59
2023-04-04T17:49:20.582Z,47.54
2023-04-04T17:51:49.034Z,47.69
2023-04-04T17:54:17.474Z,47.72
2023-04-04T17:56:50.428Z,47.80
2023-04-04T17:59:18.941Z,47.94
2023-04-04T18:01:47.069Z,47.96
2023-04-04T18:04:15.590Z,48.06
2023-04-04T18:06:43.593Z,48.11
2023-04-04T18:09:12.701Z,48.20
2023-04-04T18:11:41.028Z,48.31
2023-04-04T18:14:09.030Z,48.28
2023-04-04T18:16:40.380Z,48.32
2023-04-04T18:19:10.072Z,48.30
2023-04-04T18:21:38.504Z,48.27
2023-04-04T18:24:07.836Z,48.37
2023-04-04T18:26:36.014Z,48.40
2023-04-04T18:29:03.873Z,48.48
2023-04-04T18:31:31.869Z,48.49
2023-04-04T18:33:59.882Z,48.68
2023-04-04T18:36:27.981Z,48.69
2023-04-04T18:38:55.968Z,48.76
2023-04-04T18:41:24.023Z,48.89
2023-04-04T18:43:52.204Z,48.94
2023-04-04T18:46:20.247Z,49.06
2023-04-04T18:48:48.295Z,49.18
2023-04-04T18:51:16.287Z,49.17
2023-04-04T18:53:44.447Z,49.28
2023-04-04T18:56:12.299Z,49.18
2023-04-04T18:58:41.788Z,49.17
2023-04-04T19:01:11.536Z,49.13
2023-04-04T19:03:43.409Z,49.21
2023-04-04T19:06:12.587Z,49.32
2023-04-04T19:08:42.393Z,49.47
2023-04-04T19:11:11.089Z,49.56
2023-04-04T19:13:39.259Z,49.65
2023-04-04T19:16:07.289Z,49.75
2023-04-04T19:18:35.274Z,49.89
2023-04-04T19:21:05.593Z,49.87
2023-04-04T19:23:33.514Z,49.93
2023-04-04T19:26:02.471Z,49.99
2023-04-04T19:28:30.531Z,50.12
2023-04-04T19:30:58.572Z,50.18
2023-04-04T19:33:27.356Z,50.30
2023-04-04T19:35:55.852Z,50.27
2023-04-04T19:38:25.868Z,50.33
2023-04-04T19:41:16.820Z,50.31
2023-04-04T19:43:47.058Z,50.35
2023-04-04T19:46:29.606Z,50.24
2023-04-04T19:48:59.191Z,50.21
2023-04-04T19:51:27.933Z,50.23
2023-04-04T19:53:58.344Z,50.30
2023-04-04T19:56:28.370Z,50.35
2023-04-04T19:58:58.780Z,50.40
2023-04-04T20:01:29.168Z,50.43
2023-04-04T20:04:00.746Z,50.49
2023-04-04T20:06:31.481Z,50.58
2023-04-04T20:09:01.945Z,50.69
2023-04-04T20:11:34.050Z,50.74
2023-04-04T20:14:06.109Z,50.79
2023-04-04T20:16:34.393Z,50.89
2023-04-04T20:19:06.712Z,51.00
2023-04-04T20:21:35.801Z,51.09
2023-04-04T20:24:08.275Z,51.02
2023-04-04T20:26:36.438Z,51.03
2023-04-04T20:29:07.077Z,51.19
2023-04-04T20:31:47.133Z,51.20
2023-04-04T20:34:45.387Z,51.20
2023-04-04T20:37:20.205Z,51.15
2023-04-04T20:39:59.747Z,51.18
2023-04-04T20:42:29.205Z,51.27
2023-04-04T20:45:08.961Z,51.23
2023-04-04T20:47:51.202Z,51.32
2023-04-04T20:50:22.006Z,51.43
2023-04-04T20:52:52.349Z,51.43
2023-04-04T20:55:22.555Z,51.41
2023-04-04T20:57:52.706Z,51.43
2023-04-04T21:00:30.084Z,51.45
2023-04-04T21:03:01.306Z,51.46
2023-04-04T21:05:32.388Z,51.50
2023-04-04T21:08:01.910Z,51.44
2023-04-04T21:10:29.699Z,51.56
2023-04-04T21:13:00.802Z,51.59
2023-04-04T21:15:38.570Z,51.52
2023-04-04T21:18:08.713Z,51.71
2023-04-04T21:20:46.180Z,51.74
2023-04-04T21:23:26.197Z,51.79
2023-04-04T21:26:03.316Z,51.84
2023-04-04T21:28:45.134Z,51.93
2023-04-04T21:31:15.833Z,52.03
2023-04-04T21:33:44.758Z,51.97
2023-04-04T21:36:27.820Z,51.95
2023-04-04T21:38:58.033Z,51.94
2023-04-04T21:41:31.117Z,52.08
2023-04-04T21:44:04.371Z,52.03
2023-04-04T21:46:34.047Z,52.00
2023-04-04T21:49:02.423Z,52.04
2023-04-04T21:51:30.441Z,52.02
2023-04-04T21:53:59.912Z,52.04
2023-04-04T21:56:31.267Z,52.06
2023-04-04T21:59:01.351Z,52.10
2023-04-04T22:01:30.666Z,52.10
2023-04-04T22:03:58.900Z,52.14
2023-04-04T22:06:27.674Z,52.06
2023-04-04T22:08:57.036Z,52.19
2023-04-04T22:11:27.246Z,52.17
2023-04-04T22:14:04.994Z,52.28
2023-04-04T22:16:36.904Z,52.20
2023-04-04T22:19:05.281Z,52.24
2023-04-04T22:21:36.263Z,52.22
2023-04-04T22:24:05.991Z,52.22
2023-04-04T22:26:34.242Z,52.28
2023-04-04T22:29:04.203Z,52.28
2023-04-04T22:31:34.703Z,52.37
2023-04-04T22:34:03.490Z,52.29
2023-04-04T22:36:31.668Z,52.33
2023-04-04T22:38:59.663Z,52.34
2023-04-04T22:41:29.174Z,52.33
2023-04-04T22:43:58.079Z,52.43
2023-04-04T22:46:28.817Z,52.35
2023-04-04T22:49:06.088Z,52.41
2023-04-04T22:51:45.159Z,52.39
2023-04-04T22:54:17.040Z,52.36
2023-04-04T22:56:45.390Z,52.33
2023-04-04T22:59:13.657Z,52.40
2023-04-04T23:01:42.168Z,52.48
2023-04-04T23:04:10.434Z,52.39
2023-04-04T23:06:38.765Z,52.40
2023-04-04T23:09:08.083Z,52.44
2023-04-04T23:11:37.675Z,52.45
2023-04-04T23:14:09.728Z,52.45
2023-04-04T23:16:38.240Z,52.43
2023-04-04T23:19:06.158Z,52.42
2023-04-04T23:21:34.972Z,52.41
2023-04-04T23:24:03.838Z,52.47
2023-04-04T23:26:32.620Z,52.45
2023-04-04T23:29:01.506Z,52.45
2023-04-04T23:31:29.432Z,52.57
2023-04-04T23:33:58.388Z,52.55
2023-04-04T23:36:27.169Z,52.44
2023-04-04T23:38:55.374Z,52.36
2023-04-04T23:41:23.359Z,52.39
2023-04-04T23:43:51.300Z,52.49
2023-04-04T23:46:19.830Z,52.58
2023-04-04T23:48:47.743Z,52.65
2023-04-04T23:51:16.165Z,52.65
2023-04-04T23:53:44.013Z,52.66
2023-04-04T23:56:12.414Z,52.68
2023-04-04T23:58:40.520Z,52.70
